createdAt,value
2018-07-05T00:01:35.800Z,68.12
2018-07-05T00:04:14.301Z,69.44
2018-07-05T00:06:52.929Z,69.93
2018-07-05T00:09:32.411Z,70.23
2018-07-05T00:12:10.975Z,68.80
2018-07-05T00:14:50.107Z,71.00
2018-07-05T00:17:29.114Z,71.53
2018-07-05T00:20:08.922Z,71.43
2018-07-05T00:22:47.708Z,71.54
2018-07-05T00:25:26.658Z,70.11
2018-07-05T00:28:05.294Z,70.00
2018-07-05T00:30:44.528Z,72.45
2018-07-05T00:33:23.191Z,71.98
2018-07-05T00:36:01.967Z,71.93
2018-07-05T00:38:40.419Z,72.54
2018-07-05T00:41:19.604Z,71.97
2018-07-05T00:43:58.544Z,72.32
2018-07-05T00:46:37.303Z,74.94
2018-07-05T00:49:16.130Z,73.29
2018-07-05T00:51:54.814Z,70.36
2018-07-05T00:54:33.583Z,69.56
2018-07-05T00:57:12.420Z,71.79
2018-07-05T00:59:51.089Z,72.15
2018-07-05T01:02:30.663Z,72.62
2018-07-05T01:05:09.344Z,73.71
2018-07-05T01:07:48.228Z,72.95
2018-07-05T01:10:27.050Z,69.52
2018-07-05T01:13:05.638Z,67.81
2018-07-05T01:15:45.126Z,66.76
2018-07-05T01:18:23.792Z,68.23
2018-07-05T01:21:02.518Z,69.26
2018-07-05T01:23:41.176Z,70.91
2018-07-05T01:26:19.966Z,68.43
2018-07-05T01:28:58.992Z,71.40
2018-07-05T01:31:37.614Z,69.05
2018-07-05T01:34:16.284Z,71.19
2018-07-05T01:36:55.026Z,71.47
2018-07-05T01:39:33.673Z,70.60
2018-07-05T01:42:12.245Z,70.94
2018-07-05T01:44:51.815Z,73.77
2018-07-05T01:47:30.539Z,72.79
2018-07-05T01:50:09.260Z,74.32
2018-07-05T01:52:47.958Z,73.58
2018-07-05T01:55:26.917Z,72.09
2018-07-05T01:58:05.724Z,73.70
2018-07-05T02:00:44.356Z,73.61
2018-07-05T02:03:23.053Z,74.83
2018-07-05T02:06:02.389Z,75.89
2018-07-05T02:08:41.237Z,75.50
2018-07-05T02:11:20.056Z,72.12
2018-07-05T02:13:59.164Z,73.85
2018-07-05T02:16:38.011Z,75.37
2018-07-05T02:19:16.504Z,74.77
2018-07-05T02:21:55.461Z,75.72
2018-07-05T02:24:34.326Z,74.79
2018-07-05T02:27:13.549Z,76.09
2018-07-05T02:29:52.363Z,77.01
2018-07-05T02:32:31.295Z,76.28
2018-07-05T02:35:10.084Z,76.66
2018-07-05T02:37:56.641Z,76.98
2018-07-05T02:40:35.566Z,75.50
2018-07-05T02:43:14.312Z,76.55
2018-07-05T02:45:53.034Z,77.98
2018-07-05T02:48:32.354Z,78.75
2018-07-05T02:51:10.908Z,78.62
2018-07-05T02:53:54.354Z,77.62
2018-07-05T02:56:32.989Z,76.76
2018-07-05T02:59:11.918Z,77.76
2018-07-05T03:01:50.445Z,79.17
2018-07-05T03:04:29.296Z,79.40
2018-07-05T03:07:08.173Z,72.31
2018-07-05T03:09:47.044Z,69.74
2018-07-05T03:12:25.922Z,67.85
2018-07-05T03:15:04.710Z,68.28
2018-07-05T03:17:43.432Z,68.06
2018-07-05T03:20:22.182Z,66.37
2018-07-05T03:23:01.007Z,65.42
2018-07-05T03:25:39.870Z,65.54
2018-07-05T03:28:18.460Z,66.20
2018-07-05T03:30:57.560Z,65.43
2018-07-05T03:33:36.272Z,66.16
2018-07-05T03:36:15.098Z,67.71
2018-07-05T03:38:53.793Z,67.36
2018-07-05T03:41:32.677Z,71.08
2018-07-05T03:44:11.308Z,72.41
2018-07-05T03:46:49.935Z,72.46
2018-07-05T03:49:28.903Z,75.48
2018-07-05T03:52:09.684Z,74.14
2018-07-05T03:54:48.351Z,74.95
2018-07-05T03:57:27.317Z,74.96
2018-07-05T04:00:06.130Z,75.69
2018-07-05T04:02:45.935Z,74.85
2018-07-05T04:05:24.584Z,72.64
2018-07-05T04:08:03.359Z,70.48
2018-07-05T04:10:41.957Z,71.59
2018-07-05T04:13:20.646Z,71.58
2018-07-05T04:15:59.497Z,67.49
2018-07-05T04:18:38.276Z,69.06
2018-07-05T04:21:16.806Z,73.27
2018-07-05T04:23:55.570Z,73.75
2018-07-05T04:26:34.248Z,74.17
2018-07-05T04:29:13.104Z,73.97
2018-07-05T04:31:51.910Z,74.53
2018-07-05T04:34:30.576Z,74.88
2018-07-05T04:37:09.219Z,73.31
2018-07-05T04:39:48.008Z,68.59
2018-07-05T04:42:26.806Z,68.30
2018-07-05T04:45:09.693Z,64.84
2018-07-05T04:47:48.354Z,67.40
2018-07-05T04:50:27.356Z,69.18
2018-07-05T04:53:05.906Z,69.95
2018-07-05T04:55:44.581Z,71.83
2018-07-05T04:58:23.507Z,65.68
2018-07-05T05:01:06.401Z,67.55
2018-07-05T05:03:44.991Z,68.60
2018-07-05T05:06:23.914Z,67.73
2018-07-05T05:09:02.863Z,69.32
2018-07-05T05:11:41.713Z,67.48
2018-07-05T05:14:20.577Z,63.47
2018-07-05T05:16:59.675Z,63.49
2018-07-05T05:19:38.331Z,60.10
2018-07-05T05:22:17.438Z,59.88
2018-07-05T05:24:56.551Z,59.18
2018-07-05T05:27:35.422Z,58.08
2018-07-05T05:30:13.970Z,59.56
2018-07-05T05:32:52.752Z,58.23
2018-07-05T05:35:31.686Z,57.72
2018-07-05T05:38:10.561Z,57.91
2018-07-05T05:40:49.270Z,60.03
2018-07-05T05:43:29.820Z,61.43
2018-07-05T05:46:08.339Z,63.11
2018-07-05T05:48:48.124Z,62.37
2018-07-05T05:51:27.304Z,64.87
2018-07-05T05:54:06.572Z,65.39
2018-07-05T05:56:45.308Z,64.84
2018-07-05T05:59:24.882Z,63.87
2018-07-05T06:02:04.023Z,63.69
2018-07-05T06:04:42.699Z,63.00
2018-07-05T06:07:21.455Z,61.54
2018-07-05T06:10:00.255Z,58.24
2018-07-05T06:12:38.834Z,59.02
2018-07-05T06:15:17.395Z,57.43
2018-07-05T06:17:56.860Z,56.25
2018-07-05T06:20:36.113Z,55.86
2018-07-05T06:23:14.730Z,52.66
2018-07-05T06:25:53.349Z,54.40
2018-07-05T06:28:32.414Z,54.03
2018-07-05T06:31:11.060Z,53.06
2018-07-05T06:33:50.774Z,53.41
2018-07-05T06:36:29.653Z,53.77
2018-07-05T06:39:09.319Z,50.52
2018-07-05T06:41:49.124Z,48.16
2018-07-05T06:44:27.906Z,48.88
2018-07-05T06:47:06.630Z,46.86
2018-07-05T06:49:45.156Z,47.71
2018-07-05T06:52:23.948Z,46.33
2018-07-05T06:55:04.132Z,47.11
2018-07-05T06:57:42.943Z,47.29
2018-07-05T07:00:22.827Z,47.53
2018-07-05T07:03:01.880Z,45.79
2018-07-05T07:05:40.455Z,44.89
2018-07-05T07:08:18.992Z,44.67
2018-07-05T07:10:57.900Z,43.44
2018-07-05T07:13:37.776Z,44.62
2018-07-05T07:16:16.371Z,41.88
2018-07-05T07:18:55.336Z,39.90
2018-07-05T07:21:35.743Z,42.66
2018-07-05T07:24:14.629Z,39.72
2018-07-05T07:26:53.870Z,39.14
2018-07-05T07:29:33.539Z,38.19
2018-07-05T07:32:12.636Z,38.77
2018-07-05T07:34:51.240Z,38.11
2018-07-05T07:37:31.163Z,38.29
2018-07-05T07:40:09.656Z,37.80
2018-07-05T07:42:36.349Z,37.67
2018-07-05T07:45:02.775Z,40.34
2018-07-05T07:47:29.252Z,38.35
2018-07-05T07:49:56.831Z,36.05
2018-07-05T07:52:23.135Z,35.42
2018-07-05T07:54:49.326Z,32.63
2018-07-05T07:57:15.504Z,32.06
2018-07-05T07:59:42.142Z,31.86
2018-07-05T08:02:08.355Z,32.92
2018-07-05T08:04:35.604Z,37.07
2018-07-05T08:07:02.065Z,34.52
2018-07-05T08:09:28.594Z,33.89
2018-07-05T08:11:54.811Z,32.11
2018-07-05T08:14:21.105Z,35.83
2018-07-05T08:16:47.303Z,33.79
2018-07-05T08:19:13.505Z,31.63
2018-07-05T08:21:39.807Z,30.57
2018-07-05T08:24:06.112Z,30.94
2018-07-05T08:26:32.373Z,29.55
2018-07-05T08:28:59.010Z,28.53
2018-07-05T08:31:25.403Z,27.17
2018-07-05T08:33:51.824Z,25.91
2018-07-05T08:36:18.037Z,24.71
2018-07-05T08:38:44.249Z,33.15
2018-07-05T08:41:10.394Z,26.99
2018-07-05T08:43:38.735Z,26.88
2018-07-05T08:46:05.541Z,26.71
2018-07-05T08:48:32.036Z,27.79
2018-07-05T08:50:58.513Z,26.29
2018-07-05T08:53:24.809Z,27.23
2018-07-05T08:55:51.005Z,25.85
2018-07-05T08:58:17.323Z,25.01
2018-07-05T09:00:43.507Z,26.46
2018-07-05T09:03:09.675Z,27.06
2018-07-05T09:05:36.025Z,26.58
2018-07-05T09:08:02.392Z,27.26
2018-07-05T09:10:28.959Z,30.79
2018-07-05T09:12:55.233Z,29.55
2018-07-05T09:15:21.481Z,27.79
2018-07-05T09:17:47.874Z,29.43
2018-07-05T09:20:13.838Z,31.37
2018-07-05T09:22:40.126Z,32.79
2018-07-05T09:25:06.397Z,31.88
2018-07-05T09:27:32.639Z,33.38
2018-07-05T09:29:59.024Z,29.11
2018-07-05T09:32:25.903Z,32.72
2018-07-05T09:34:52.286Z,33.59
2018-07-05T09:37:18.588Z,29.87
2018-07-05T09:39:44.785Z,31.32
2018-07-05T09:42:11.008Z,32.76
2018-07-05T09:44:37.212Z,32.62
2018-07-05T09:47:03.693Z,31.10
2018-07-05T09:49:30.174Z,30.72
2018-07-05T09:51:56.816Z,23.64
2018-07-05T09:54:23.001Z,24.48
2018-07-05T09:56:49.166Z,24.53
2018-07-05T09:59:15.527Z,27.32
2018-07-05T10:01:41.700Z,25.75
2018-07-05T10:04:07.991Z,26.52
2018-07-05T10:06:34.473Z,29.88
2018-07-05T10:09:00.825Z,23.84
2018-07-05T10:11:27.457Z,22.68
2018-07-05T10:13:53.875Z,22.18
2018-07-05T10:16:20.019Z,25.63
2018-07-05T10:18:46.189Z,24.25
2018-07-05T10:21:12.441Z,25.08
2018-07-05T10:23:38.743Z,23.32
2018-07-05T10:26:05.366Z,22.12
2018-07-05T10:28:31.660Z,22.85
2018-07-05T10:31:10.555Z,21.62
2018-07-05T10:33:46.200Z,26.97
2018-07-05T10:36:12.349Z,26.72
2018-07-05T10:38:38.643Z,23.15
2018-07-05T10:41:17.348Z,27.74
2018-07-05T10:43:57.161Z,23.22
2018-07-05T10:46:36.153Z,21.88
2018-07-05T10:49:14.968Z,21.65
2018-07-05T10:51:53.897Z,22.22
2018-07-05T10:54:32.882Z,23.25
2018-07-05T10:57:11.528Z,25.10
2018-07-05T10:59:50.106Z,29.17
2018-07-05T11:02:29.328Z,27.56
2018-07-05T11:05:09.082Z,28.31
2018-07-05T11:07:47.721Z,25.80
2018-07-05T11:10:27.389Z,30.23
2018-07-05T11:13:06.286Z,26.53
2018-07-05T11:15:44.928Z,24.55
2018-07-05T11:18:23.473Z,22.97
2018-07-05T11:21:02.186Z,26.84
2018-07-05T11:23:41.109Z,20.05
2018-07-05T11:26:20.499Z,26.78
2018-07-05T11:29:00.020Z,18.21
2018-07-05T11:31:38.748Z,18.95
2018-07-05T11:34:17.476Z,19.36
2018-07-05T11:36:56.703Z,18.33
2018-07-05T11:39:35.611Z,19.04
2018-07-05T11:42:14.515Z,17.86
2018-07-05T11:44:53.229Z,16.39
2018-07-05T11:47:32.896Z,15.87
2018-07-05T11:50:11.597Z,16.87
2018-07-05T11:52:50.257Z,18.85
2018-07-05T11:55:29.566Z,16.09
2018-07-05T11:58:08.323Z,17.64
2018-07-05T12:00:46.953Z,15.05
2018-07-05T12:03:26.465Z,14.53
2018-07-05T12:06:05.608Z,16.22
2018-07-05T12:08:44.365Z,15.33
2018-07-05T12:11:22.951Z,14.12
2018-07-05T12:14:01.751Z,15.85
2018-07-05T12:16:40.360Z,15.67
2018-07-05T12:19:19.979Z,17.35
2018-07-05T12:21:59.640Z,17.56
2018-07-05T12:24:38.326Z,20.67
2018-07-05T12:27:17.058Z,19.98
2018-07-05T12:29:56.600Z,19.36
2018-07-05T12:32:36.511Z,19.03
2018-07-05T12:35:15.214Z,19.55
2018-07-05T12:37:53.851Z,20.86
2018-07-05T12:40:33.843Z,19.69
2018-07-05T12:43:12.621Z,21.51
2018-07-05T12:45:51.128Z,21.50
2018-07-05T12:48:30.259Z,21.65
2018-07-05T12:51:09.186Z,21.75
2018-07-05T12:53:47.885Z,21.15
2018-07-05T12:56:27.335Z,21.62
2018-07-05T12:59:06.406Z,22.17
2018-07-05T13:01:46.973Z,23.08
2018-07-05T13:04:26.212Z,23.96
2018-07-05T13:07:04.985Z,22.06
2018-07-05T13:09:43.536Z,23.17
2018-07-05T13:12:22.223Z,22.60
2018-07-05T13:15:01.411Z,21.44
2018-07-05T13:17:40.220Z,24.05
2018-07-05T13:20:18.985Z,22.23
2018-07-05T13:22:58.447Z,23.77
2018-07-05T13:25:37.625Z,22.78
2018-07-05T13:28:16.280Z,22.14
2018-07-05T13:30:55.368Z,23.88
2018-07-05T13:33:34.534Z,22.33
2018-07-05T13:36:13.182Z,23.08
2018-07-05T13:38:51.666Z,23.09
2018-07-05T13:41:30.740Z,22.49
2018-07-05T13:44:09.561Z,22.40
2018-07-05T13:46:48.155Z,23.02
2018-07-05T13:49:28.789Z,22.48
2018-07-05T13:52:08.096Z,23.60
2018-07-05T13:54:47.913Z,22.70
2018-07-05T13:57:27.599Z,22.72
2018-07-05T14:00:07.340Z,24.06
2018-07-05T14:02:46.075Z,23.44
2018-07-05T14:05:24.619Z,24.35
2018-07-05T14:08:04.118Z,24.24
2018-07-05T14:10:42.868Z,23.63
2018-07-05T14:13:21.541Z,25.21
2018-07-05T14:16:00.560Z,23.05
2018-07-05T14:18:39.259Z,22.44
2018-07-05T14:21:17.772Z,24.74
2018-07-05T14:23:57.292Z,24.27
2018-07-05T14:26:36.093Z,23.72
2018-07-05T14:29:15.260Z,22.67
2018-07-05T14:31:54.032Z,23.72
2018-07-05T14:34:33.226Z,25.51
2018-07-05T14:37:11.916Z,23.56
2018-07-05T14:39:51.556Z,26.11
2018-07-05T14:42:30.510Z,22.96
2018-07-05T14:45:09.229Z,22.77
2018-07-05T14:47:47.929Z,22.88
2018-07-05T14:50:30.719Z,22.64
2018-07-05T14:53:09.658Z,22.70
2018-07-05T14:55:48.376Z,22.46
2018-07-05T14:58:27.282Z,22.47
2018-07-05T15:01:06.434Z,22.23
2018-07-05T15:03:45.432Z,18.76
2018-07-05T15:06:24.030Z,17.79
2018-07-05T15:09:04.944Z,18.87
2018-07-05T15:11:43.950Z,19.01
2018-07-05T15:14:22.436Z,17.70
2018-07-05T15:17:02.526Z,15.98
2018-07-05T15:19:41.533Z,15.53
2018-07-05T15:22:20.113Z,15.11
2018-07-05T15:25:03.449Z,15.29
2018-07-05T15:27:42.161Z,14.83
2018-07-05T15:30:20.940Z,15.79
2018-07-05T15:33:00.190Z,16.16
2018-07-05T15:35:38.854Z,17.65
2018-07-05T15:38:17.698Z,16.76
2018-07-05T15:40:57.018Z,14.98
2018-07-05T15:43:36.160Z,15.47
2018-07-05T15:46:14.995Z,15.58
2018-07-05T15:48:53.818Z,14.96
2018-07-05T15:51:32.600Z,15.42
2018-07-05T15:54:11.619Z,16.17
2018-07-05T15:56:50.446Z,16.77
2018-07-05T15:59:29.677Z,17.78
2018-07-05T16:02:08.574Z,20.93
2018-07-05T16:04:47.770Z,21.89
2018-07-05T16:07:27.814Z,22.84
2018-07-05T16:10:07.651Z,24.47
2018-07-05T16:12:46.331Z,25.64
2018-07-05T16:15:25.496Z,25.35
2018-07-05T16:18:04.856Z,26.21
2018-07-05T16:20:43.593Z,27.67
2018-07-05T16:23:22.707Z,27.49
2018-07-05T16:26:02.217Z,28.14
2018-07-05T16:28:41.020Z,27.95
2018-07-05T16:31:19.819Z,27.93
2018-07-05T16:33:59.412Z,28.65
2018-07-05T16:36:38.639Z,28.76
2018-07-05T16:39:17.220Z,28.93
2018-07-05T16:41:57.479Z,29.19
2018-07-05T16:44:36.941Z,30.33
2018-07-05T16:47:15.752Z,30.06
2018-07-05T16:49:54.451Z,30.22
2018-07-05T16:52:33.816Z,30.45
2018-07-05T16:55:12.713Z,30.39
2018-07-05T16:57:51.340Z,30.84
2018-07-05T17:00:30.617Z,30.22
2018-07-05T17:03:10.793Z,29.67
2018-07-05T17:05:49.543Z,30.87
2018-07-05T17:08:30.079Z,30.30
2018-07-05T17:11:08.641Z,30.17
2018-07-05T17:13:47.415Z,30.92
2018-07-05T17:16:27.197Z,31.17
2018-07-05T17:19:06.230Z,31.24
2018-07-05T17:21:44.824Z,30.94
2018-07-05T17:24:23.555Z,31.23
2018-07-05T17:27:02.564Z,31.62
2018-07-05T17:29:41.255Z,31.68
2018-07-05T17:32:20.538Z,32.15
2018-07-05T17:35:00.061Z,32.03
2018-07-05T17:37:39.140Z,32.09
2018-07-05T17:40:18.199Z,31.43
2018-07-05T17:42:59.446Z,32.66
2018-07-05T17:45:38.332Z,32.11
2018-07-05T17:48:16.965Z,32.61
2018-07-05T17:50:56.646Z,32.46
2018-07-05T17:53:35.655Z,33.13
2018-07-05T17:56:14.375Z,32.80
2018-07-05T17:58:53.112Z,32.11
2018-07-05T18:01:38.176Z,32.48
2018-07-05T18:04:16.699Z,32.32
2018-07-05T18:06:55.462Z,32.35
2018-07-05T18:09:34.345Z,32.45
2018-07-05T18:12:14.918Z,33.46
2018-07-05T18:14:53.605Z,32.60
2018-07-05T18:17:32.606Z,33.86
2018-07-05T18:20:11.291Z,33.95
2018-07-05T18:22:50.452Z,33.19
2018-07-05T18:25:31.078Z,33.82
2018-07-05T18:28:09.954Z,33.78
2018-07-05T18:30:48.681Z,33.81
2018-07-05T18:33:28.161Z,34.05
2018-07-05T18:36:07.044Z,34.30
2018-07-05T18:38:46.029Z,34.17
2018-07-05T18:41:24.696Z,34.80
2018-07-05T18:44:03.444Z,34.63
2018-07-05T18:46:42.148Z,34.74
2018-07-05T18:49:20.912Z,34.22
2018-07-05T18:52:00.112Z,34.45
2018-07-05T18:54:39.257Z,34.83
2018-07-05T18:57:17.842Z,34.58
2018-07-05T18:59:57.044Z,34.54
2018-07-05T19:02:36.017Z,35.11
2018-07-05T19:05:15.148Z,34.84
2018-07-05T19:07:54.654Z,35.32
2018-07-05T19:10:33.751Z,35.30
2018-07-05T19:13:12.205Z,35.81
2018-07-05T19:15:51.013Z,35.68
2018-07-05T19:18:31.092Z,35.99
2018-07-05T19:21:09.960Z,36.15
2018-07-05T19:23:48.526Z,36.30
2018-07-05T19:26:27.997Z,36.45
2018-07-05T19:29:07.285Z,36.87
2018-07-05T19:31:46.432Z,36.75
2018-07-05T19:34:26.292Z,36.97
2018-07-05T19:37:05.195Z,37.24
2018-07-05T19:39:43.892Z,38.88
2018-07-05T19:42:23.069Z,39.46
2018-07-05T19:45:01.946Z,38.65
2018-07-05T19:47:41.430Z,40.02
2018-07-05T19:50:20.141Z,40.02
2018-07-05T19:52:59.737Z,40.25
2018-07-05T19:55:38.533Z,40.68
2018-07-05T19:58:17.472Z,40.84
2018-07-05T20:01:00.320Z,41.47
2018-07-05T20:03:39.803Z,41.91
2018-07-05T20:06:18.597Z,42.13
2018-07-05T20:08:58.220Z,42.54
2018-07-05T20:11:42.018Z,43.52
2018-07-05T20:14:20.689Z,44.10
2018-07-05T20:16:59.934Z,44.99
2018-07-05T20:19:39.889Z,47.53
2018-07-05T20:22:19.500Z,45.89
2018-07-05T20:24:59.141Z,46.01
2018-07-05T20:27:38.259Z,46.37
2018-07-05T20:30:17.126Z,46.06
2018-07-05T20:32:56.877Z,46.13
2018-07-05T20:35:35.806Z,45.62
2018-07-05T20:38:14.356Z,45.96
2018-07-05T20:40:53.279Z,46.21
2018-07-05T20:43:32.322Z,46.88
2018-07-05T20:46:11.001Z,46.52
2018-07-05T20:48:49.684Z,46.20
2018-07-05T20:51:29.131Z,45.64
2018-07-05T20:54:08.540Z,45.74
2018-07-05T20:56:47.215Z,45.79
2018-07-05T20:59:26.114Z,45.74
2018-07-05T21:02:05.080Z,45.83
2018-07-05T21:04:44.747Z,46.20
2018-07-05T21:07:23.874Z,46.69
2018-07-05T21:10:02.689Z,46.38
2018-07-05T21:12:41.446Z,46.85
2018-07-05T21:15:20.272Z,47.93
2018-07-05T21:17:59.310Z,47.57
2018-07-05T21:20:38.529Z,47.68
2018-07-05T21:23:17.648Z,49.74
2018-07-05T21:25:57.022Z,49.48
2018-07-05T21:28:36.389Z,48.64
2018-07-05T21:31:15.025Z,48.40
2018-07-05T21:33:54.021Z,49.07
2018-07-05T21:36:32.904Z,49.70
2018-07-05T21:39:11.606Z,50.35
2018-07-05T21:41:50.484Z,50.60
2018-07-05T21:44:33.914Z,50.84
2018-07-05T21:47:13.762Z,51.25
2018-07-05T21:49:52.972Z,51.04
2018-07-05T21:52:31.971Z,51.49
2018-07-05T21:55:11.137Z,51.81
2018-07-05T21:57:49.822Z,51.94
2018-07-05T22:00:28.992Z,52.22
2018-07-05T22:03:08.131Z,52.74
2018-07-05T22:05:46.764Z,52.37
2018-07-05T22:08:26.698Z,52.34
2018-07-05T22:11:05.779Z,52.89
2018-07-05T22:13:44.338Z,52.66
2018-07-05T22:16:23.077Z,53.17
2018-07-05T22:19:07.674Z,52.95
2018-07-05T22:21:52.533Z,53.03
2018-07-05T22:24:36.949Z,53.23
2018-07-05T22:27:21.776Z,53.70
2018-07-05T22:30:08.251Z,54.60
2018-07-05T22:32:46.967Z,54.31
2018-07-05T22:35:25.853Z,54.23
2018-07-05T22:38:04.944Z,55.20
2018-07-05T22:40:43.647Z,55.66
2018-07-05T22:43:22.308Z,56.22
2018-07-05T22:46:01.073Z,56.67
2018-07-05T22:48:39.833Z,57.57
2018-07-05T22:51:18.449Z,57.96
2018-07-05T22:53:57.559Z,60.88
2018-07-05T22:56:36.278Z,60.63
2018-07-05T22:59:14.944Z,61.51
2018-07-05T23:01:53.705Z,62.47
2018-07-05T23:04:32.597Z,61.48
2018-07-05T23:07:11.122Z,62.52
2018-07-05T23:09:49.856Z,62.45
2018-07-05T23:12:28.775Z,63.98
2018-07-05T23:15:08.004Z,63.95
2018-07-05T23:17:46.809Z,63.88
2018-07-05T23:20:25.755Z,64.81
2018-07-05T23:23:04.612Z,65.70
2018-07-05T23:25:43.176Z,65.61
2018-07-05T23:28:21.845Z,65.66
2018-07-05T23:31:01.048Z,65.31
2018-07-05T23:33:40.007Z,67.82
2018-07-05T23:36:18.788Z,68.27
2018-07-05T23:38:58.134Z,66.63
2018-07-05T23:41:37.154Z,66.90
2018-07-05T23:44:16.201Z,65.29
2018-07-05T23:46:54.991Z,65.62
2018-07-05T23:49:33.921Z,66.08
2018-07-05T23:52:12.745Z,65.91
2018-07-05T23:54:51.313Z,65.62
2018-07-05T23:57:30.484Z,65.50
